METARs

EEEI - Ämari Air Base

EEEI 251450Z 07007KT CAVOK 18/10 Q1038 NOSIG

EEKA - Kärdla

EEKA 251450Z 03004KT CAVOK 16/12 Q1037

EEKE - Kuressaare

EEKE 251450Z 10009KT 060V120 CAVOK 17/11 Q1036

EEPU - Pärnu

EEPU 251250Z 07008KT 030V120 CAVOK 19/09 Q1037

EETN - Lennart Meri Tallinn

EETN 251450Z 06007KT CAVOK 17/12 Q1038 NOSIG

EETU - Tartu

EETU 251450Z 10006KT CAVOK 16/08 Q1038

Sign In

ATC Booking

currently no ATC Bookings...